Weather at Bad Wörishofen (Nord) Airfield

Public forecast

Using degrees Celsius for public forecast. Weather courtesy of forecast.io.

Closest aviation weather report (METAR) to Bad Wörishofen (Nord) Airfield

Closest report is Lechfeld Air Base, 14.2 nm (26.2 km) NE.

2024/04/18 03:20 (retrieved 44 minutes ago)

ETSL 180320Z 22004KT 9999 -RA BKN005 BKN020 02/01 Q1011 YLO

Closest aviation forecast (TAF) to Bad Wörishofen (Nord) Airfield

Forecast is more than 12 hours old.

Closest forecast is Ansbach Katterbach Army Heliport, 77.6 nm (143.7 km) N.

2024/04/17 07:09 (retrieved 21 hours ago)

TAF ETEB 170700Z 1707/1813 32009KT 6000 -RA BR BKN007 QNH2974INS BECMG 1708/1709 34009KT 6000 -RA BR SCT020 BKN030 QNH2975INS BECMG 1711/1712 34010G15KT 9999 NSW SCT030 BKN100 QNH2976INS BECMG 1713/1714 32010G20KT 9999 BKN060 QNH2975INS BECMG 1722/1723 27006KT 6000 -RA BR BKN007 QNH2980INS BECMG 1806/1807 34006KT 9999 NSW BKN030 QNH2986INS TX08/1715Z TN02/1803Z